sensor_id;sensor_type;location;lat;lon;timestamp;pressure;altitude;pressure_sealevel;temperature;humidity
50093;BME280;35974;47.752;10.290;2022-08-19T00:01:33;93481.56;;;16.40;100.00
50093;BME280;35974;47.752;10.290;2022-08-19T00:04:07;93504.78;;;16.65;100.00
50093;BME280;35974;47.752;10.290;2022-08-19T00:06:36;93492.19;;;16.51;100.00
50093;BME280;35974;47.752;10.290;2022-08-19T00:09:05;93519.31;;;16.68;100.00
50093;BME280;35974;47.752;10.290;2022-08-19T00:11:33;93532.53;;;16.68;100.00
50093;BME280;35974;47.752;10.290;2022-08-19T00:14:06;93521.31;;;16.56;100.00
50093;BME280;35974;47.752;10.290;2022-08-19T00:16:32;93522.13;;;16.56;100.00
50093;BME280;35974;47.752;10.290;2022-08-19T00:18:59;93513.31;;;16.51;100.00
50093;BME280;35974;47.752;10.290;2022-08-19T00:21:27;93509.13;;;16.50;100.00
50093;BME280;35974;47.752;10.290;2022-08-19T00:23:54;93526.50;;;16.45;100.00
50093;BME280;35974;47.752;10.290;2022-08-19T00:26:25;93497.09;;;16.37;100.00
50093;BME280;35974;47.752;10.290;2022-08-19T00:28:52;93492.53;;;16.54;100.00
50093;BME280;35974;47.752;10.290;2022-08-19T00:31:18;93508.66;;;16.58;100.00
50093;BME280;35974;47.752;10.290;2022-08-19T00:33:45;93518.72;;;16.61;100.00
50093;BME280;35974;47.752;10.290;2022-08-19T00:36:11;93516.13;;;16.66;100.00
50093;BME280;35974;47.752;10.290;2022-08-19T00:38:38;93516.63;;;16.63;100.00
50093;BME280;35974;47.752;10.290;2022-08-19T00:41:13;93523.03;;;16.67;100.00
50093;BME280;35974;47.752;10.290;2022-08-19T00:43:40;93503.69;;;16.61;100.00
50093;BME280;35974;47.752;10.290;2022-08-19T00:46:07;93516.72;;;16.73;100.00
50093;BME280;35974;47.752;10.290;2022-08-19T00:48:34;93520.13;;;16.69;100.00
50093;BME280;35974;47.752;10.290;2022-08-19T00:51:03;93515.03;;;16.62;100.00
50093;BME280;35974;47.752;10.290;2022-08-19T00:53:31;93504.22;;;16.63;100.00
50093;BME280;35974;47.752;10.290;2022-08-19T00:55:59;93476.56;;;16.44;100.00
50093;BME280;35974;47.752;10.290;2022-08-19T00:58:31;93493.31;;;16.55;100.00
50093;BME280;35974;47.752;10.290;2022-08-19T01:01:01;93482.03;;;16.37;100.00
50093;BME280;35974;47.752;10.290;2022-08-19T01:03:27;93484.25;;;16.18;100.00
50093;BME280;35974;47.752;10.290;2022-08-19T01:06:14;93501.75;;;16.02;100.00
50093;BME280;35974;47.752;10.290;2022-08-19T01:08:45;93470.47;;;15.89;100.00
50093;BME280;35974;47.752;10.290;2022-08-19T01:11:15;93461.47;;;15.90;100.00
50093;BME280;35974;47.752;10.290;2022-08-19T01:13:42;93481.13;;;15.99;100.00
50093;BME280;35974;47.752;10.290;2022-08-19T01:16:16;93485.91;;;16.02;100.00
50093;BME280;35974;47.752;10.290;2022-08-19T01:18:44;93463.28;;;15.84;100.00
50093;BME280;35974;47.752;10.290;2022-08-19T01:21:18;93485.91;;;16.02;100.00
50093;BME280;35974;47.752;10.290;2022-08-19T01:23:48;93471.44;;;15.83;100.00
50093;BME280;35974;47.752;10.290;2022-08-19T01:26:18;93474.97;;;15.71;100.00
50093;BME280;35974;47.752;10.290;2022-08-19T01:28:46;93480.72;;;15.68;100.00
50093;BME280;35974;47.752;10.290;2022-08-19T01:31:19;93436.31;;;15.60;100.00
50093;BME280;35974;47.752;10.290;2022-08-19T01:33:55;93473.41;;;15.92;100.00
50093;BME280;35974;47.752;10.290;2022-08-19T01:36:37;93483.22;;;15.97;100.00
50093;BME280;35974;47.752;10.290;2022-08-19T01:39:08;93474.25;;;15.98;100.00
50093;BME280;35974;47.752;10.290;2022-08-19T01:41:35;93472.28;;;16.10;100.00
50093;BME280;35974;47.752;10.290;2022-08-19T01:44:02;93494.47;;;16.15;100.00
50093;BME280;35974;47.752;10.290;2022-08-19T01:46:44;93497.69;;;16.17;100.00
50093;BME280;35974;47.752;10.290;2022-08-19T01:49:11;93476.63;;;16.00;100.00
50093;BME280;35974;47.752;10.290;2022-08-19T01:51:38;93482.78;;;16.05;100.00
50093;BME280;35974;47.752;10.290;2022-08-19T01:54:06;93487.00;;;16.06;100.00
50093;BME280;35974;47.752;10.290;2022-08-19T01:56:33;93499.88;;;16.25;100.00
50093;BME280;35974;47.752;10.290;2022-08-19T01:59:03;93495.16;;;16.27;100.00
50093;BME280;35974;47.752;10.290;2022-08-19T02:01:30;93471.88;;;16.24;100.00
50093;BME280;35974;47.752;10.290;2022-08-19T02:04:01;93457.53;;;16.15;100.00
50093;BME280;35974;47.752;10.290;2022-08-19T02:06:28;93456.75;;;16.14;100.00
50093;BME280;35974;47.752;10.290;2022-08-19T02:08:55;93472.91;;;16.23;100.00
50093;BME280;35974;47.752;10.290;2022-08-19T02:11:27;93458.41;;;15.98;100.00
50093;BME280;35974;47.752;10.290;2022-08-19T02:13:54;93472.88;;;16.18;100.00
50093;BME280;35974;47.752;10.290;2022-08-19T02:16:21;93467.59;;;16.18;100.00
50093;BME280;35974;47.752;10.290;2022-08-19T02:18:48;93453.84;;;16.16;100.00
50093;BME280;35974;47.752;10.290;2022-08-19T02:21:16;93484.09;;;16.30;100.00
50093;BME280;35974;47.752;10.290;2022-08-19T02:23:43;93482.94;;;16.21;100.00
50093;BME280;35974;47.752;10.290;2022-08-19T02:26:12;93480.69;;;16.07;100.00
50093;BME280;35974;47.752;10.290;2022-08-19T02:28:39;93464.31;;;16.05;100.00
50093;BME280;35974;47.752;10.290;2022-08-19T02:31:15;93480.53;;;16.19;100.00
50093;BME280;35974;47.752;10.290;2022-08-19T02:33:43;93450.00;;;16.01;100.00
50093;BME280;35974;47.752;10.290;2022-08-19T02:36:11;93488.25;;;16.26;100.00
50093;BME280;35974;47.752;10.290;2022-08-19T02:38:41;93466.50;;;16.14;100.00
50093;BME280;35974;47.752;10.290;2022-08-19T02:41:16;93486.75;;;16.30;100.00
50093;BME280;35974;47.752;10.290;2022-08-19T02:43:44;93488.31;;;16.31;100.00
50093;BME280;35974;47.752;10.290;2022-08-19T02:46:31;93489.19;;;16.15;100.00
50093;BME280;35974;47.752;10.290;2022-08-19T02:49:06;93461.19;;;16.08;100.00
50093;BME280;35974;47.752;10.290;2022-08-19T02:51:36;93478.16;;;16.18;100.00
50093;BME280;35974;47.752;10.290;2022-08-19T02:54:04;93481.22;;;16.09;100.00
50093;BME280;35974;47.752;10.290;2022-08-19T02:56:31;93453.75;;;16.05;100.00
50093;BME280;35974;47.752;10.290;2022-08-19T02:58:57;93469.09;;;16.08;100.00
50093;BME280;35974;47.752;10.290;2022-08-19T03:01:27;93458.53;;;16.08;100.00
50093;BME280;35974;47.752;10.290;2022-08-19T03:03:55;93447.84;;;15.98;100.00
50093;BME280;35974;47.752;10.290;2022-08-19T03:06:22;93467.00;;;16.10;100.00
50093;BME280;35974;47.752;10.290;2022-08-19T03:08:49;93457.97;;;16.06;100.00
50093;BME280;35974;47.752;10.290;2022-08-19T03:11:21;93465.56;;;16.25;100.00
50093;BME280;35974;47.752;10.290;2022-08-19T03:13:49;93450.06;;;16.06;100.00
50093;BME280;35974;47.752;10.290;2022-08-19T03:16:18;93476.06;;;16.20;100.00
50093;BME280;35974;47.752;10.290;2022-08-19T03:18:45;93463.50;;;16.05;100.00
50093;BME280;35974;47.752;10.290;2022-08-19T03:21:20;93463.97;;;16.02;100.00
50093;BME280;35974;47.752;10.290;2022-08-19T03:23:48;93479.75;;;16.19;100.00
50093;BME280;35974;47.752;10.290;2022-08-19T03:26:14;93453.63;;;15.95;100.00
50093;BME280;35974;47.752;10.290;2022-08-19T03:28:44;93473.75;;;16.01;100.00
50093;BME280;35974;47.752;10.290;2022-08-19T03:31:23;93454.50;;;15.79;100.00
50093;BME280;35974;47.752;10.290;2022-08-19T03:34:14;93472.53;;;15.87;100.00
50093;BME280;35974;47.752;10.290;2022-08-19T03:36:41;93446.50;;;15.73;100.00
50093;BME280;35974;47.752;10.290;2022-08-19T03:39:09;93454.63;;;15.89;100.00
50093;BME280;35974;47.752;10.290;2022-08-19T03:41:38;93454.63;;;15.89;100.00
50093;BME280;35974;47.752;10.290;2022-08-19T03:44:12;93454.78;;;15.82;100.00
50093;BME280;35974;47.752;10.290;2022-08-19T03:46:45;93438.03;;;15.71;100.00
50093;BME280;35974;47.752;10.290;2022-08-19T03:49:12;93438.59;;;15.73;100.00
50093;BME280;35974;47.752;10.290;2022-08-19T03:51:41;93451.13;;;15.83;100.00
50093;BME280;35974;47.752;10.290;2022-08-19T03:54:10;93419.81;;;15.70;100.00
50093;BME280;35974;47.752;10.290;2022-08-19T03:56:39;93425.41;;;15.73;100.00
50093;BME280;35974;47.752;10.290;2022-08-19T03:59:09;93434.00;;;15.86;100.00
50093;BME280;35974;47.752;10.290;2022-08-19T04:01:36;93432.41;;;15.85;100.00
50093;BME280;35974;47.752;10.290;2022-08-19T04:04:02;93428.41;;;15.82;100.00
50093;BME280;35974;47.752;10.290;2022-08-19T04:06:32;93408.63;;;15.80;100.00
50093;BME280;35974;47.752;10.290;2022-08-19T04:09:02;93406.88;;;15.68;100.00
50093;BME280;35974;47.752;10.290;2022-08-19T04:11:35;93413.41;;;15.83;100.00
50093;BME280;35974;47.752;10.290;2022-08-19T04:14:12;93408.88;;;15.61;100.00
50093;BME280;35974;47.752;10.290;2022-08-19T04:16:38;93420.91;;;15.74;100.00
50093;BME280;35974;47.752;10.290;2022-08-19T04:19:06;93422.22;;;15.71;100.00
50093;BME280;35974;47.752;10.290;2022-08-19T04:21:33;93409.47;;;15.63;100.00
50093;BME280;35974;47.752;10.290;2022-08-19T04:24:00;93409.94;;;15.60;100.00
50093;BME280;35974;47.752;10.290;2022-08-19T04:26:32;93433.06;;;15.53;100.00
50093;BME280;35974;47.752;10.290;2022-08-19T04:29:08;93464.03;;;15.41;100.00
50093;BME280;35974;47.752;10.290;2022-08-19T04:31:39;93464.84;;;15.24;100.00
50093;BME280;35974;47.752;10.290;2022-08-19T04:34:08;93473.00;;;15.06;100.00
50093;BME280;35974;47.752;10.290;2022-08-19T04:36:38;93479.75;;;14.96;100.00
50093;BME280;35974;47.752;10.290;2022-08-19T04:39:12;93480.50;;;15.14;100.00
50093;BME280;35974;47.752;10.290;2022-08-19T04:41:40;93463.59;;;15.10;100.00
50093;BME280;35974;47.752;10.290;2022-08-19T04:44:25;93467.38;;;15.36;100.00
50093;BME280;35974;47.752;10.290;2022-08-19T04:46:52;93447.28;;;15.74;100.00
50093;BME280;35974;47.752;10.290;2022-08-19T04:49:20;93489.34;;;15.81;100.00
50093;BME280;35974;47.752;10.290;2022-08-19T04:51:49;93468.50;;;15.62;100.00
50093;BME280;35974;47.752;10.290;2022-08-19T04:54:17;93478.50;;;15.60;100.00
50093;BME280;35974;47.752;10.290;2022-08-19T04:57:03;93507.84;;;15.64;100.00
50093;BME280;35974;47.752;10.290;2022-08-19T04:59:32;93482.00;;;15.66;100.00
50093;BME280;35974;47.752;10.290;2022-08-19T05:01:59;93468.56;;;15.67;100.00
50093;BME280;35974;47.752;10.290;2022-08-19T05:04:26;93491.56;;;15.89;100.00
50093;BME280;35974;47.752;10.290;2022-08-19T05:06:52;93475.16;;;15.87;100.00
50093;BME280;35974;47.752;10.290;2022-08-19T05:09:26;93483.03;;;16.04;100.00
50093;BME280;35974;47.752;10.290;2022-08-19T05:12:07;93479.03;;;16.01;100.00
50093;BME280;35974;47.752;10.290;2022-08-19T05:14:34;93481.84;;;16.17;100.00
50093;BME280;35974;47.752;10.290;2022-08-19T05:17:02;93478.91;;;15.91;100.00
50093;BME280;35974;47.752;10.290;2022-08-19T05:19:49;93504.44;;;16.07;100.00
50093;BME280;35974;47.752;10.290;2022-08-19T05:22:34;93496.56;;;16.13;100.00
50093;BME280;35974;47.752;10.290;2022-08-19T05:25:05;93500.97;;;16.29;100.00
50093;BME280;35974;47.752;10.290;2022-08-19T05:27:39;93487.78;;;16.29;100.00
50093;BME280;35974;47.752;10.290;2022-08-19T05:30:06;93480.56;;;16.46;100.00
50093;BME280;35974;47.752;10.290;2022-08-19T05:32:33;93492.19;;;16.78;100.00
50093;BME280;35974;47.752;10.290;2022-08-19T05:34:59;93483.44;;;16.72;100.00
50093;BME280;35974;47.752;10.290;2022-08-19T05:37:26;93467.06;;;16.70;100.00
50093;BME280;35974;47.752;10.290;2022-08-19T05:39:54;93476.13;;;16.84;100.00
50093;BME280;35974;47.752;10.290;2022-08-19T05:42:21;93474.88;;;16.87;100.00
50093;BME280;35974;47.752;10.290;2022-08-19T05:44:50;93469.34;;;16.89;100.00
50093;BME280;35974;47.752;10.290;2022-08-19T05:47:17;93484.44;;;16.93;100.00
50093;BME280;35974;47.752;10.290;2022-08-19T05:49:46;93456.03;;;16.78;100.00
50093;BME280;35974;47.752;10.290;2022-08-19T05:52:14;93464.16;;;17.04;100.00
50093;BME280;35974;47.752;10.290;2022-08-19T05:54:45;93442.84;;;16.83;100.00
50093;BME280;35974;47.752;10.290;2022-08-19T05:57:18;93440.25;;;16.89;100.00
50093;BME280;35974;47.752;10.290;2022-08-19T05:59:44;93470.16;;;17.32;98.92
50093;BME280;35974;47.752;10.290;2022-08-19T06:02:23;93468.59;;;17.36;99.85
50093;BME280;35974;47.752;10.290;2022-08-19T06:04:49;93435.91;;;17.57;96.42
50093;BME280;35974;47.752;10.290;2022-08-19T06:07:16;93440.81;;;17.33;96.47
50093;BME280;35974;47.752;10.290;2022-08-19T06:09:43;93457.34;;;17.13;96.84
50093;BME280;35974;47.752;10.290;2022-08-19T06:12:27;93482.38;;;17.43;97.00
50093;BME280;35974;47.752;10.290;2022-08-19T06:14:54;93464.81;;;17.22;96.29
50093;BME280;35974;47.752;10.290;2022-08-19T06:17:27;93491.88;;;17.39;96.84
50093;BME280;35974;47.752;10.290;2022-08-19T06:19:53;93483.94;;;17.34;97.52
50093;BME280;35974;47.752;10.290;2022-08-19T06:22:20;93479.16;;;17.31;97.69
50093;BME280;35974;47.752;10.290;2022-08-19T06:24:46;93497.75;;;17.46;97.25
50093;BME280;35974;47.752;10.290;2022-08-19T06:27:13;93513.63;;;17.51;96.95
50093;BME280;35974;47.752;10.290;2022-08-19T06:29:39;93497.75;;;17.46;97.26
50093;BME280;35974;47.752;10.290;2022-08-19T06:32:06;93507.69;;;17.29;96.09
50093;BME280;35974;47.752;10.290;2022-08-19T06:34:33;93486.38;;;17.03;95.05
50093;BME280;35974;47.752;10.290;2022-08-19T06:37:01;93485.13;;;16.83;94.92
50093;BME280;35974;47.752;10.290;2022-08-19T06:39:38;93501.56;;;16.63;97.33
50093;BME280;35974;47.752;10.290;2022-08-19T06:42:06;93511.38;;;16.68;97.82
50093;BME280;35974;47.752;10.290;2022-08-19T06:44:37;93516.63;;;16.63;97.52
50093;BME280;35974;47.752;10.290;2022-08-19T06:47:09;93482.94;;;16.21;99.15
50093;BME280;35974;47.752;10.290;2022-08-19T06:49:48;93511.38;;;16.41;100.00
50093;BME280;35974;47.752;10.290;2022-08-19T06:52:15;93514.84;;;16.41;99.26
50093;BME280;35974;47.752;10.290;2022-08-19T06:54:42;93514.72;;;16.31;100.00
50093;BME280;35974;47.752;10.290;2022-08-19T06:57:22;93505.97;;;16.53;99.19
50093;BME280;35974;47.752;10.290;2022-08-19T06:59:50;93514.25;;;16.61;98.83
50093;BME280;35974;47.752;10.290;2022-08-19T07:02:17;93513.75;;;16.64;99.60
50093;BME280;35974;47.752;10.290;2022-08-19T07:04:44;93512.03;;;16.80;97.91
50093;BME280;35974;47.752;10.290;2022-08-19T07:07:13;93532.69;;;16.83;98.58
50093;BME280;35974;47.752;10.290;2022-08-19T07:09:47;93500.78;;;16.63;98.14
50093;BME280;35974;47.752;10.290;2022-08-19T07:12:28;93529.66;;;16.97;97.65
50093;BME280;35974;47.752;10.290;2022-08-19T07:14:56;93508.88;;;16.78;97.75
50093;BME280;35974;47.752;10.290;2022-08-19T07:17:23;93525.41;;;16.96;97.94
50093;BME280;35974;47.752;10.290;2022-08-19T07:19:50;93540.00;;;17.36;96.39
50093;BME280;35974;47.752;10.290;2022-08-19T07:22:20;93541.00;;;17.30;96.23
50093;BME280;35974;47.752;10.290;2022-08-19T07:24:49;93510.56;;;16.90;98.55
50093;BME280;35974;47.752;10.290;2022-08-19T07:27:17;93519.63;;;16.99;98.61
50093;BME280;35974;47.752;10.290;2022-08-19T07:29:52;93520.63;;;16.93;98.57
50093;BME280;35974;47.752;10.290;2022-08-19T07:32:22;93491.00;;;16.91;98.14
50093;BME280;35974;47.752;10.290;2022-08-19T07:34:49;93490.13;;;16.80;99.31
50093;BME280;35974;47.752;10.290;2022-08-19T07:37:15;93526.03;;;17.08;97.86
50093;BME280;35974;47.752;10.290;2022-08-19T07:39:42;93496.19;;;16.80;99.29
50093;BME280;35974;47.752;10.290;2022-08-19T07:42:11;93531.38;;;17.13;99.84
50093;BME280;35974;47.752;10.290;2022-08-19T07:44:40;93537.44;;;17.14;96.89
50093;BME280;35974;47.752;10.290;2022-08-19T07:47:07;93509.66;;;17.06;96.01
50093;BME280;35974;47.752;10.290;2022-08-19T07:49:54;93533.53;;;17.22;96.60
50093;BME280;35974;47.752;10.290;2022-08-19T07:52:20;93481.91;;;16.81;96.42
50093;BME280;35974;47.752;10.290;2022-08-19T07:54:46;93508.53;;;17.02;98.01
50093;BME280;35974;47.752;10.290;2022-08-19T07:57:13;93504.88;;;17.03;97.70
50093;BME280;35974;47.752;10.290;2022-08-19T07:59:39;93498.66;;;16.87;97.34
50093;BME280;35974;47.752;10.290;2022-08-19T08:02:07;93503.25;;;17.02;98.27
50093;BME280;35974;47.752;10.290;2022-08-19T08:04:34;93506.38;;;16.94;98.27
50093;BME280;35974;47.752;10.290;2022-08-19T08:07:19;93487.19;;;16.81;100.00
50093;BME280;35974;47.752;10.290;2022-08-19T08:10:11;93478.34;;;16.93;98.37
50093;BME280;35974;47.752;10.290;2022-08-19T08:12:47;93485.09;;;17.11;98.28
50093;BME280;35974;47.752;10.290;2022-08-19T08:15:34;93518.69;;;17.15;99.88
50093;BME280;35974;47.752;10.290;2022-08-19T08:18:08;93519.78;;;17.19;97.80
50093;BME280;35974;47.752;10.290;2022-08-19T08:20:34;93513.25;;;16.95;97.60
50093;BME280;35974;47.752;10.290;2022-08-19T08:23:01;93501.59;;;16.91;96.98
50093;BME280;35974;47.752;10.290;2022-08-19T08:25:46;93507.41;;;16.93;96.65
50093;BME280;35974;47.752;10.290;2022-08-19T08:28:15;93533.19;;;16.80;99.28
50093;BME280;35974;47.752;10.290;2022-08-19T08:30:43;93525.31;;;16.86;99.76
50093;BME280;35974;47.752;10.290;2022-08-19T08:33:13;93506.06;;;16.63;99.69
50093;BME280;35974;47.752;10.290;2022-08-19T08:35:45;93517.75;;;16.67;100.00
50093;BME280;35974;47.752;10.290;2022-08-19T08:38:12;93539.91;;;16.66;100.00
50093;BME280;35974;47.752;10.290;2022-08-19T08:40:46;93534.59;;;16.61;100.00
50093;BME280;35974;47.752;10.290;2022-08-19T08:43:30;93515.44;;;16.48;100.00
50093;BME280;35974;47.752;10.290;2022-08-19T08:48:42;93556.59;;;16.72;100.00
50093;BME280;35974;47.752;10.290;2022-08-19T08:51:32;93554.72;;;16.67;100.00
50093;BME280;35974;47.752;10.290;2022-08-19T08:54:03;93528.69;;;16.54;99.63
50093;BME280;35974;47.752;10.290;2022-08-19T08:56:31;93552.72;;;16.79;100.00
50093;BME280;35974;47.752;10.290;2022-08-19T08:59:05;93563.09;;;16.86;100.00
50093;BME280;35974;47.752;10.290;2022-08-19T09:01:34;93548.94;;;16.70;100.00
50093;BME280;35974;47.752;10.290;2022-08-19T09:04:04;93538.06;;;16.94;98.77
50093;BME280;35974;47.752;10.290;2022-08-19T09:09:14;93567.03;;;16.83;99.95
50093;BME280;35974;47.752;10.290;2022-08-19T09:12:05;93544.47;;;16.48;100.00
50093;BME280;35974;47.752;10.290;2022-08-19T09:14:50;93551.91;;;16.52;100.00
50093;BME280;35974;47.752;10.290;2022-08-19T09:17:26;93566.66;;;16.47;100.00
50093;BME280;35974;47.752;10.290;2022-08-19T09:22:36;93565.00;;;16.41;100.00
50093;BME280;35974;47.752;10.290;2022-08-19T09:25:04;93551.41;;;16.55;100.00
50093;BME280;35974;47.752;10.290;2022-08-19T09:27:32;93571.09;;;16.20;100.00
50093;BME280;35974;47.752;10.290;2022-08-19T09:30:14;93577.09;;;16.37;100.00
50093;BME280;35974;47.752;10.290;2022-08-19T09:32:41;93552.78;;;16.35;100.00
50093;BME280;35974;47.752;10.290;2022-08-19T09:35:10;93578.94;;;16.59;100.00
50093;BME280;35974;47.752;10.290;2022-08-19T09:37:37;93575.84;;;16.67;100.00
50093;BME280;35974;47.752;10.290;2022-08-19T09:40:05;93554.59;;;16.57;100.00
50093;BME280;35974;47.752;10.290;2022-08-19T09:42:34;93561.50;;;16.58;100.00
50093;BME280;35974;47.752;10.290;2022-08-19T09:45:02;93584.00;;;16.88;98.79
50093;BME280;35974;47.752;10.290;2022-08-19T09:47:35;93568.06;;;16.82;97.60
50093;BME280;35974;47.752;10.290;2022-08-19T09:50:08;93586.91;;;16.64;100.00
50093;BME280;35974;47.752;10.290;2022-08-19T09:52:36;93543.84;;;16.36;100.00
50093;BME280;35974;47.752;10.290;2022-08-19T09:55:09;93544.44;;;16.43;99.94
50093;BME280;35974;47.752;10.290;2022-08-19T09:57:36;93586.09;;;16.63;99.76
50093;BME280;35974;47.752;10.290;2022-08-19T10:00:06;93547.75;;;16.11;100.00
50093;BME280;35974;47.752;10.290;2022-08-19T10:02:34;93585.06;;;16.42;100.00
50093;BME280;35974;47.752;10.290;2022-08-19T10:05:00;93574.47;;;16.37;100.00
50093;BME280;35974;47.752;10.290;2022-08-19T10:07:53;93563.47;;;16.45;100.00
50093;BME280;35974;47.752;10.290;2022-08-19T10:10:22;93560.38;;;16.54;100.00
50093;BME280;35974;47.752;10.290;2022-08-19T10:12:49;93581.41;;;16.43;100.00
50093;BME280;35974;47.752;10.290;2022-08-19T10:15:16;93579.50;;;16.39;100.00
50093;BME280;35974;47.752;10.290;2022-08-19T10:17:55;93584.22;;;16.59;100.00
50093;BME280;35974;47.752;10.290;2022-08-19T10:20:24;93593.47;;;16.61;100.00
50093;BME280;35974;47.752;10.290;2022-08-19T10:22:51;93577.94;;;16.65;100.00
50093;BME280;35974;47.752;10.290;2022-08-19T10:25:18;93584.81;;;16.66;100.00
50093;BME280;35974;47.752;10.290;2022-08-19T10:27:45;93587.81;;;16.75;100.00
50093;BME280;35974;47.752;10.290;2022-08-19T10:30:17;93588.97;;;16.62;100.00
50093;BME280;35974;47.752;10.290;2022-08-19T10:32:45;93579.03;;;16.69;100.00
50093;BME280;35974;47.752;10.290;2022-08-19T10:35:13;93597.94;;;16.56;100.00
50093;BME280;35974;47.752;10.290;2022-08-19T10:37:47;93612.72;;;16.57;100.00
50093;BME280;35974;47.752;10.290;2022-08-19T10:40:28;93609.13;;;16.68;100.00
50093;BME280;35974;47.752;10.290;2022-08-19T10:42:55;93607.31;;;16.69;100.00
50093;BME280;35974;47.752;10.290;2022-08-19T10:45:23;93600.38;;;16.62;100.00
50093;BME280;35974;47.752;10.290;2022-08-19T10:47:55;93595.16;;;16.45;100.00
50093;BME280;35974;47.752;10.290;2022-08-19T10:50:23;93598.91;;;16.50;100.00
50093;BME280;35974;47.752;10.290;2022-08-19T10:53:08;93604.31;;;16.38;100.00
50093;BME280;35974;47.752;10.290;2022-08-19T10:55:35;93584.97;;;16.32;100.00
50093;BME280;35974;47.752;10.290;2022-08-19T10:58:22;93606.81;;;16.50;100.00
50093;BME280;35974;47.752;10.290;2022-08-19T11:00:54;93573.91;;;16.35;100.00
50093;BME280;35974;47.752;10.290;2022-08-19T11:03:22;93582.69;;;16.41;100.00
50093;BME280;35974;47.752;10.290;2022-08-19T11:06:05;93610.31;;;16.55;100.00
50093;BME280;35974;47.752;10.290;2022-08-19T11:08:33;93599.09;;;16.43;100.00
50093;BME280;35974;47.752;10.290;2022-08-19T11:11:02;93606.94;;;16.16;100.00
50093;BME280;35974;47.752;10.290;2022-08-19T11:13:31;93586.97;;;16.03;100.00
50093;BME280;35974;47.752;10.290;2022-08-19T11:16:06;93599.75;;;16.11;100.00
50093;BME280;35974;47.752;10.290;2022-08-19T11:18:38;93594.28;;;16.18;100.00
50093;BME280;35974;47.752;10.290;2022-08-19T11:23:37;93569.88;;;16.05;100.00
50093;BME280;35974;47.752;10.290;2022-08-19T11:26:04;93597.63;;;16.30;100.00
50093;BME280;35974;47.752;10.290;2022-08-19T11:28:32;93583.72;;;16.18;100.00
50093;BME280;35974;47.752;10.290;2022-08-19T11:30:59;93586.31;;;16.13;100.00
50093;BME280;35974;47.752;10.290;2022-08-19T11:33:25;93579.66;;;15.88;100.00
50093;BME280;35974;47.752;10.290;2022-08-19T11:35:52;93595.44;;;16.05;100.00
50093;BME280;35974;47.752;10.290;2022-08-19T11:38:20;93581.75;;;15.86;100.00
50093;BME280;35974;47.752;10.290;2022-08-19T11:40:54;93603.53;;;15.98;100.00
50093;BME280;35974;47.752;10.290;2022-08-19T11:43:20;93601.81;;;15.87;100.00
50093;BME280;35974;47.752;10.290;2022-08-19T11:45:47;93607.00;;;15.82;100.00
50093;BME280;35974;47.752;10.290;2022-08-19T11:48:14;93594.38;;;15.84;100.00
50093;BME280;35974;47.752;10.290;2022-08-19T11:50:41;93610.38;;;15.94;100.00
50093;BME280;35974;47.752;10.290;2022-08-19T11:53:09;93616.59;;;15.88;100.00
50093;BME280;35974;47.752;10.290;2022-08-19T11:55:38;93602.81;;;16.03;100.00
50093;BME280;35974;47.752;10.290;2022-08-19T11:58:09;93601.84;;;16.09;100.00
50093;BME280;35974;47.752;10.290;2022-08-19T12:00:47;93589.97;;;16.11;100.00
50093;BME280;35974;47.752;10.290;2022-08-19T12:03:14;93600.88;;;16.15;100.00
50093;BME280;35974;47.752;10.290;2022-08-19T12:05:42;93608.28;;;15.96;100.00
50093;BME280;35974;47.752;10.290;2022-08-19T12:08:08;93596.94;;;15.96;100.00
50093;BME280;35974;47.752;10.290;2022-08-19T12:10:36;93628.66;;;16.23;100.00
50093;BME280;35974;47.752;10.290;2022-08-19T12:13:02;93616.25;;;16.01;100.00
50093;BME280;35974;47.752;10.290;2022-08-19T12:15:29;93627.56;;;16.19;100.00
50093;BME280;35974;47.752;10.290;2022-08-19T12:18:03;93642.47;;;16.08;100.00
50093;BME280;35974;47.752;10.290;2022-08-19T12:20:30;93622.97;;;15.92;100.00
50093;BME280;35974;47.752;10.290;2022-08-19T12:23:02;93606.53;;;15.85;100.00
50093;BME280;35974;47.752;10.290;2022-08-19T12:25:29;93633.06;;;15.95;100.00
50093;BME280;35974;47.752;10.290;2022-08-19T12:27:57;93626.31;;;16.04;100.00
50093;BME280;35974;47.752;10.290;2022-08-19T12:30:25;93609.38;;;16.00;100.00
50093;BME280;35974;47.752;10.290;2022-08-19T12:32:51;93636.09;;;16.04;100.00
50093;BME280;35974;47.752;10.290;2022-08-19T12:35:18;93635.50;;;16.19;100.00
50093;BME280;35974;47.752;10.290;2022-08-19T12:37:48;93633.81;;;16.13;100.00
50093;BME280;35974;47.752;10.290;2022-08-19T12:40:22;93638.50;;;16.05;100.00
50093;BME280;35974;47.752;10.290;2022-08-19T12:42:52;93608.75;;;15.93;100.00
50093;BME280;35974;47.752;10.290;2022-08-19T12:45:18;93626.03;;;15.84;100.00
50093;BME280;35974;47.752;10.290;2022-08-19T12:47:46;93606.53;;;15.85;100.00
50093;BME280;35974;47.752;10.290;2022-08-19T12:50:13;93612.59;;;15.68;100.00
50093;BME280;35974;47.752;10.290;2022-08-19T12:52:41;93614.75;;;16.05;100.00
50093;BME280;35974;47.752;10.290;2022-08-19T12:55:09;93613.50;;;16.13;100.00
50093;BME280;35974;47.752;10.290;2022-08-19T12:57:39;93631.78;;;16.20;100.00
50093;BME280;35974;47.752;10.290;2022-08-19T13:00:12;93648.63;;;16.36;100.00
50093;BME280;35974;47.752;10.290;2022-08-19T13:02:41;93652.34;;;16.35;100.00
50093;BME280;35974;47.752;10.290;2022-08-19T13:05:13;93661.34;;;16.17;100.00
50093;BME280;35974;47.752;10.290;2022-08-19T13:07:40;93642.28;;;16.15;100.00
50093;BME280;35974;47.752;10.290;2022-08-19T13:10:09;93660.13;;;16.46;100.00